Time,TemperatureF,DewpointF,PressureIn,WindDirection,WindDirectionDegrees,WindSpeedMPH,WindSpeedGustMPH,Humidity,HourlyPrecipIn,Conditions,Clouds,dailyrainin,SolarRadiationWatts/m^2,SoftwareType,DateUTC
2013-01-11 00:00:00,47.7,44.6,29.96,SW,216,0.0,3.0,89,0.00,,---,0.00,0.00,VWS V14.00,2013-01-11 06:00:00,
2013-01-11 00:01:00,47.7,44.6,29.96,SW,216,0.0,0.0,89,0.00,,---,0.00,0.00,VWS V14.00,2013-01-11 06:01:00,
2013-01-11 00:05:00,47.6,44.2,29.96,SW,216,0.0,1.0,88,0.00,,---,0.00,0.00,VWS V14.00,2013-01-11 06:05:00,
2013-01-11 00:09:00,47.4,44.3,29.96,SSW,200,0.0,1.0,89,0.00,,---,0.00,0.00,VWS V14.00,2013-01-11 06:09:00,
2013-01-11 00:13:00,47.6,44.5,29.96,SSW,200,3.0,4.0,89,0.00,,---,0.00,0.00,VWS V14.00,2013-01-11 06:13:00,
2013-01-11 00:17:00,47.9,44.8,29.96,South,191,3.0,5.0,89,0.00,,---,0.00,0.00,VWS V14.00,2013-01-11 06:17:00,
2013-01-11 00:22:00,47.8,44.4,29.96,SSW,194,0.0,5.0,88,0.00,,---,0.00,0.00,VWS V14.00,2013-01-11 06:22:00,
2013-01-11 00:26:00,47.9,44.5,29.96,SSW,201,2.0,5.0,88,0.00,,---,0.00,0.00,VWS V14.00,2013-01-11 06:26:00,
2013-01-11 00:30:00,48.0,44.6,29.95,SSW,201,3.0,5.0,88,0.00,,---,0.00,0.00,VWS V14.00,2013-01-11 06:30:00,
2013-01-11 00:34:00,48.1,44.7,29.95,SSW,201,0.0,4.0,88,0.00,,---,0.00,0.00,VWS V14.00,2013-01-11 06:34:00,
2013-01-11 00:38:00,47.8,44.1,29.95,SSW,201,0.0,4.0,87,0.00,,---,0.00,0.00,VWS V14.00,2013-01-11 06:38:00,
2013-01-11 00:42:00,47.5,44.1,29.95,SSW,201,0.0,4.0,88,0.00,,---,0.00,0.00,VWS V14.00,2013-01-11 06:42:00,
2013-01-11 00:46:00,47.3,44.2,29.95,SSW,201,0.0,4.0,89,0.00,,---,0.00,0.00,VWS V14.00,2013-01-11 06:46:00,
2013-01-11 00:50:00,47.3,44.2,29.95,SSW,201,0.0,4.0,89,0.00,,---,0.00,0.00,VWS V14.00,2013-01-11 06:50:00,
2013-01-11 00:54:00,47.3,44.2,29.95,SSW,201,0.0,4.0,89,0.00,,---,0.00,0.00,VWS V14.00,2013-01-11 06:54:00,
2013-01-11 00:58:00,47.4,44.3,29.95,SSW,201,0.0,4.0,89,0.00,,---,0.00,0.00,VWS V14.00,2013-01-11 06:58:00,
2013-01-11 01:00:00,47.3,44.2,29.95,SSW,205,0.0,4.0,89,0.00,,---,0.00,0.00,VWS V14.00,2013-01-11 07:00:00,
2013-01-11 01:02:00,47.3,44.2,29.95,SSW,205,0.0,1.0,89,0.00,,---,0.00,0.00,VWS V14.00,2013-01-11 07:02:00,
2013-01-11 01:06:00,47.3,44.2,29.95,SSW,204,0.0,2.0,89,0.00,,---,0.00,0.00,VWS V14.00,2013-01-11 07:06:00,
2013-01-11 01:10:00,47.4,44.3,29.95,SSW,205,1.0,2.0,89,0.00,,---,0.00,0.00,VWS V14.00,2013-01-11 07:10:00,
2013-01-11 01:14:00,47.3,44.2,29.94,SSW,205,2.0,2.0,89,0.00,,---,0.00,0.00,VWS V14.00,2013-01-11 07:14:00,
2013-01-11 01:18:00,47.7,44.6,29.94,SSW,200,4.0,4.0,89,0.00,,---,0.00,0.00,VWS V14.00,2013-01-11 07:18:00,
2013-01-11 01:22:00,48.1,45.0,29.94,SSW,201,0.0,4.0,89,0.00,,---,0.00,0.00,VWS V14.00,2013-01-11 07:22:00,
2013-01-11 01:26:00,48.0,44.6,29.94,South,190,0.0,4.0,88,0.00,,---,0.00,0.00,VWS V14.00,2013-01-11 07:26:00,
2013-01-11 01:30:00,48.1,44.7,29.94,SW,223,2.0,4.0,88,0.00,,---,0.00,0.00,VWS V14.00,2013-01-11 07:30:00,
2013-01-11 01:34:00,48.5,45.1,29.94,SW,221,2.0,3.0,88,0.00,,---,0.00,0.00,VWS V14.00,2013-01-11 07:34:00,
2013-01-11 01:38:00,49.0,45.6,29.94,South,186,3.0,4.0,88,0.00,,---,0.00,0.00,VWS V14.00,2013-01-11 07:38:00,
2013-01-11 01:42:00,49.7,45.7,29.94,South,188,7.0,7.0,86,0.00,,---,0.00,0.00,VWS V14.00,2013-01-11 07:42:00,
2013-01-11 01:46:00,50.1,45.8,29.94,South,187,7.0,7.0,85,0.00,,---,0.00,0.00,VWS V14.00,2013-01-11 07:46:00,
2013-01-11 01:50:00,50.3,46.0,29.94,South,186,6.0,9.0,85,0.00,,---,0.00,0.00,VWS V14.00,2013-01-11 07:50:00,
2013-01-11 01:54:00,50.4,46.1,29.94,SSW,192,5.0,9.0,85,0.00,,---,0.00,0.00,VWS V14.00,2013-01-11 07:54:00,
2013-01-11 01:58:00,50.4,46.1,29.94,South,169,3.0,9.0,85,0.00,,---,0.00,0.00,VWS V14.00,2013-01-11 07:58:00,
2013-01-11 02:00:00,50.3,45.7,29.95,South,185,6.0,9.0,84,0.00,,---,0.00,0.00,VWS V14.00,2013-01-11 08:00:00,
2013-01-11 02:02:00,50.4,46.1,29.95,South,176,4.0,6.0,85,0.00,,---,0.00,0.00,VWS V14.00,2013-01-11 08:02:00,
2013-01-11 02:06:00,50.4,45.8,29.95,South,189,5.0,6.0,84,0.00,,---,0.00,0.00,VWS V14.00,2013-01-11 08:06:00,
2013-01-11 02:10:00,50.4,45.8,29.95,South,183,9.0,9.0,84,0.00,,---,0.00,0.00,VWS V14.00,2013-01-11 08:10:00,
2013-01-11 02:14:00,50.4,45.8,29.95,South,191,4.0,9.0,84,0.00,,---,0.00,0.00,VWS V14.00,2013-01-11 08:14:00,
2013-01-11 02:18:00,50.1,45.5,29.95,SSW,192,4.0,9.0,84,0.00,,---,0.00,0.00,VWS V14.00,2013-01-11 08:18:00,
2013-01-11 02:22:00,50.1,45.8,29.95,SSW,192,3.0,9.0,85,0.00,,---,0.00,0.00,VWS V14.00,2013-01-11 08:22:00,
2013-01-11 02:26:00,50.1,45.8,29.95,South,178,5.0,9.0,85,0.00,,---,0.00,0.00,VWS V14.00,2013-01-11 08:26:00,
2013-01-11 02:30:00,50.2,45.6,29.95,South,180,9.0,9.0,84,0.00,,---,0.00,0.00,VWS V14.00,2013-01-11 08:30:00,
2013-01-11 02:34:00,50.3,45.7,29.95,South,171,7.0,10.0,84,0.00,,---,0.00,0.00,VWS V14.00,2013-01-11 08:34:00,
2013-01-11 02:38:00,50.5,45.8,29.95,South,186,5.0,10.0,84,0.00,,---,0.00,0.00,VWS V14.00,2013-01-11 08:38:00,
2013-01-11 02:43:00,50.5,45.5,29.95,South,184,4.0,10.0,83,0.00,,---,0.00,0.00,VWS V14.00,2013-01-11 08:43:00,
2013-01-11 02:47:00,50.4,45.8,29.95,South,182,6.0,10.0,84,0.00,,---,0.00,0.00,VWS V14.00,2013-01-11 08:47:00,
2013-01-11 02:51:00,50.4,45.8,29.95,South,169,5.0,11.0,84,0.00,,---,0.00,0.00,VWS V14.00,2013-01-11 08:51:00,
2013-01-11 02:55:00,50.3,45.7,29.95,South,179,5.0,11.0,84,0.00,,---,0.00,0.00,VWS V14.00,2013-01-11 08:55:00,
2013-01-11 02:59:00,50.4,45.8,29.95,South,188,4.0,11.0,84,0.00,,---,0.00,0.00,VWS V14.00,2013-01-11 08:59:00,
2013-01-11 03:00:00,50.4,45.8,29.95,South,185,7.0,11.0,84,0.00,,---,0.00,0.00,VWS V14.00,2013-01-11 09:00:00,
2013-01-11 03:03:00,50.5,45.8,29.95,SSW,192,10.0,10.0,84,0.00,,---,0.00,0.00,VWS V14.00,2013-01-11 09:03:00,
2013-01-11 03:07:00,50.6,45.6,29.95,South,186,9.0,10.0,83,0.00,,---,0.00,0.00,VWS V14.00,2013-01-11 09:07:00,
2013-01-11 03:11:00,50.8,45.8,29.95,SSE,168,6.0,10.0,83,0.00,,---,0.00,0.00,VWS V14.00,2013-01-11 09:11:00,
2013-01-11 03:15:00,50.9,45.6,29.94,SSW,200,4.0,10.0,82,0.00,,---,0.00,0.00,VWS V14.00,2013-01-11 09:15:00,
2013-01-11 03:19:00,50.9,45.6,29.94,South,186,5.0,13.0,82,0.00,,---,0.00,0.00,VWS V14.00,2013-01-11 09:19:00,
2013-01-11 03:23:00,50.8,45.8,29.94,South,177,5.0,13.0,83,0.00,,---,0.00,0.00,VWS V14.00,2013-01-11 09:23:00,
2013-01-11 03:27:00,50.8,45.8,29.94,SSW,200,9.0,14.0,83,0.00,,---,0.00,0.00,VWS V14.00,2013-01-11 09:27:00,
2013-01-11 03:30:00,50.8,45.8,29.93,SSW,194,8.0,14.0,83,0.00,,---,0.00,0.00,VWS V14.00,2013-01-11 09:30:00,
2013-01-11 03:31:00,50.7,45.7,29.93,SSW,198,5.0,8.0,83,0.00,,---,0.00,0.00,VWS V14.00,2013-01-11 09:31:00,
2013-01-11 03:35:00,50.6,45.6,29.93,SSE,163,9.0,9.0,83,0.00,,---,0.00,0.00,VWS V14.00,2013-01-11 09:35:00,
2013-01-11 03:39:00,50.6,45.6,29.93,South,175,6.0,10.0,83,0.00,,---,0.00,0.00,VWS V14.00,2013-01-11 09:39:00,
2013-01-11 03:43:00,50.6,45.6,29.93,South,172,10.0,11.0,83,0.00,,---,0.00,0.00,VWS V14.00,2013-01-11 09:43:00,
2013-01-11 03:47:00,50.5,45.5,29.92,SSW,195,5.0,11.0,83,0.00,,---,0.00,0.00,VWS V14.00,2013-01-11 09:47:00,
2013-01-11 03:51:00,50.3,45.7,29.92,SSW,194,6.0,11.0,84,0.00,,---,0.00,0.00,VWS V14.00,2013-01-11 09:51:00,
2013-01-11 03:55:00,50.0,45.4,29.92,SSW,198,3.0,11.0,84,0.00,,---,0.00,0.00,VWS V14.00,2013-01-11 09:55:00,
2013-01-11 03:59:00,49.9,45.6,29.92,South,185,6.0,11.0,85,0.00,,---,0.00,0.00,VWS V14.00,2013-01-11 09:59:00,
2013-01-11 04:00:00,49.9,45.6,29.92,South,188,7.0,11.0,85,0.00,,---,0.00,0.00,VWS V14.00,2013-01-11 10:00:00,
2013-01-11 04:03:00,49.9,45.6,29.92,SSW,194,6.0,7.0,85,0.00,,---,0.00,0.00,VWS V14.00,2013-01-11 10:03:00,
2013-01-11 04:07:00,49.9,45.6,29.92,SSW,192,4.0,8.0,85,0.00,,---,0.00,0.00,VWS V14.00,2013-01-11 10:07:00,
2013-01-11 04:11:00,49.9,45.6,29.92,South,186,8.0,10.0,85,0.00,,---,0.00,0.00,VWS V14.00,2013-01-11 10:11:00,
2013-01-11 04:15:00,49.9,45.3,29.91,South,182,7.0,11.0,84,0.00,,---,0.00,0.00,VWS V14.00,2013-01-11 10:15:00,
2013-01-11 04:19:00,49.8,45.5,29.91,SSW,192,6.0,11.0,85,0.00,,---,0.00,0.00,VWS V14.00,2013-01-11 10:19:00,
2013-01-11 04:23:00,49.7,45.4,29.91,South,188,7.0,11.0,85,0.00,,---,0.00,0.00,VWS V14.00,2013-01-11 10:23:00,
2013-01-11 04:27:00,49.8,45.5,29.91,South,180,7.0,11.0,85,0.00,,---,0.00,0.00,VWS V14.00,2013-01-11 10:27:00,
2013-01-11 04:30:00,49.8,45.2,29.91,SSW,198,11.0,11.0,84,0.00,,---,0.00,0.00,VWS V14.00,2013-01-11 10:30:00,
2013-01-11 04:31:00,49.9,45.3,29.91,South,186,9.0,11.0,84,0.00,,---,0.00,0.00,VWS V14.00,2013-01-11 10:31:00,
2013-01-11 04:35:00,49.8,45.2,29.91,South,174,9.0,11.0,84,0.00,,---,0.00,0.00,VWS V14.00,2013-01-11 10:35:00,
2013-01-11 04:39:00,49.8,45.2,29.91,South,188,10.0,11.0,84,0.00,,---,0.00,0.00,VWS V14.00,2013-01-11 10:39:00,
2013-01-11 04:43:00,49.9,45.3,29.91,South,185,10.0,11.0,84,0.00,,---,0.00,0.00,VWS V14.00,2013-01-11 10:43:00,
2013-01-11 04:47:00,50.0,45.4,29.90,South,178,6.0,11.0,84,0.00,,---,0.00,0.00,VWS V14.00,2013-01-11 10:47:00,
2013-01-11 04:51:00,50.2,45.2,29.90,South,187,5.0,11.0,83,0.00,,---,0.00,0.00,VWS V14.00,2013-01-11 10:51:00,
2013-01-11 04:55:00,50.0,45.4,29.90,South,186,4.0,11.0,84,0.00,,---,0.00,0.00,VWS V14.00,2013-01-11 10:55:00,
2013-01-11 04:59:00,49.9,45.3,29.91,South,190,4.0,11.0,84,0.00,,---,0.00,0.00,VWS V14.00,2013-01-11 10:59:00,
2013-01-11 05:00:00,49.9,45.3,29.91,South,190,4.0,11.0,84,0.00,,---,0.00,0.00,VWS V14.00,2013-01-11 11:00:00,
2013-01-11 05:03:00,49.6,45.0,29.91,South,181,4.0,7.0,84,0.00,,---,0.00,0.00,VWS V14.00,2013-01-11 11:03:00,
2013-01-11 05:08:00,49.4,45.1,29.91,SSW,204,3.0,7.0,85,0.00,,---,0.00,0.00,VWS V14.00,2013-01-11 11:08:00,
2013-01-11 05:12:00,49.4,45.1,29.91,South,186,10.0,10.0,85,0.00,,---,0.00,0.00,VWS V14.00,2013-01-11 11:12:00,
2013-01-11 05:16:00,49.4,45.1,29.91,South,191,6.0,10.0,85,0.00,,---,0.00,0.00,VWS V14.00,2013-01-11 11:16:00,
2013-01-11 05:20:00,49.2,44.9,29.91,South,188,4.0,10.0,85,0.00,,---,0.00,0.00,VWS V14.00,2013-01-11 11:20:00,
2013-01-11 05:24:00,49.1,44.8,29.91,South,183,6.0,10.0,85,0.00,,---,0.00,0.00,VWS V14.00,2013-01-11 11:24:00,
2013-01-11 05:28:00,49.0,44.7,29.91,SSW,196,3.0,10.0,85,0.00,,---,0.00,0.00,VWS V14.00,2013-01-11 11:28:00,
2013-01-11 05:30:00,48.8,44.8,29.91,South,179,4.0,10.0,86,0.00,,---,0.00,0.00,VWS V14.00,2013-01-11 11:30:00,
2013-01-11 05:32:00,48.8,44.8,29.91,SSW,192,4.0,4.0,86,0.00,,---,0.00,0.00,VWS V14.00,2013-01-11 11:32:00,
2013-01-11 05:36:00,48.8,44.8,29.91,South,188,3.0,6.0,86,0.00,,---,0.00,0.00,VWS V14.00,2013-01-11 11:36:00,
2013-01-11 05:40:00,48.8,44.8,29.91,South,186,3.0,6.0,86,0.00,,---,0.00,0.00,VWS V14.00,2013-01-11 11:40:00,
2013-01-11 05:44:00,48.9,44.9,29.91,South,185,7.0,7.0,86,0.00,,---,0.00,0.00,VWS V14.00,2013-01-11 11:44:00,
2013-01-11 05:48:00,49.0,45.0,29.91,South,188,5.0,7.0,86,0.00,,---,0.00,0.00,VWS V14.00,2013-01-11 11:48:00,
2013-01-11 05:52:00,49.0,45.0,29.91,South,178,7.0,7.0,86,0.00,,---,0.00,0.00,VWS V14.00,2013-01-11 11:52:00,
2013-01-11 05:56:00,49.0,45.0,29.91,SSW,197,6.0,7.0,86,0.00,,---,0.00,0.00,VWS V14.00,2013-01-11 11:56:00,
2013-01-11 06:00:00,49.1,45.1,29.91,South,170,9.0,9.0,86,0.00,,---,0.00,0.00,VWS V14.00,2013-01-11 12:00:00,
2013-01-11 06:04:00,49.3,45.3,29.91,South,180,5.0,9.0,86,0.00,,---,0.00,0.00,VWS V14.00,2013-01-11 12:04:00,
2013-01-11 06:08:00,49.4,45.1,29.91,South,183,5.0,12.0,85,0.00,,---,0.00,0.00,VWS V14.00,2013-01-11 12:08:00,
2013-01-11 06:12:00,49.3,45.3,29.91,South,191,5.0,12.0,86,0.00,,---,0.00,0.00,VWS V14.00,2013-01-11 12:12:00,
2013-01-11 06:16:00,49.1,45.1,29.91,South,188,6.0,12.0,86,0.00,,---,0.00,0.00,VWS V14.00,2013-01-11 12:16:00,
2013-01-11 06:20:00,49.1,45.1,29.91,South,177,5.0,12.0,86,0.00,,---,0.00,0.00,VWS V14.00,2013-01-11 12:20:00,
2013-01-11 06:24:00,49.1,45.1,29.91,South,190,5.0,12.0,86,0.00,,---,0.00,0.00,VWS V14.00,2013-01-11 12:24:00,
2013-01-11 06:28:00,49.1,45.1,29.91,South,180,5.0,12.0,86,0.00,,---,0.00,0.00,VWS V14.00,2013-01-11 12:28:00,
2013-01-11 06:30:00,49.0,45.0,29.91,South,184,6.0,12.0,86,0.00,,---,0.00,0.00,VWS V14.00,2013-01-11 12:30:00,
2013-01-11 06:32:00,49.0,45.0,29.91,South,185,7.0,7.0,86,0.00,,---,0.00,0.00,VWS V14.00,2013-01-11 12:32:00,
2013-01-11 06:36:00,48.9,44.9,29.91,South,184,4.0,7.0,86,0.00,,---,0.00,0.00,VWS V14.00,2013-01-11 12:36:00,
2013-01-11 06:40:00,48.7,45.0,29.91,South,177,4.0,7.0,87,0.00,,---,0.00,0.00,VWS V14.00,2013-01-11 12:40:00,
2013-01-11 06:44:00,48.6,44.9,29.92,South,188,4.0,7.0,87,0.00,,---,0.00,0.00,VWS V14.00,2013-01-11 12:44:00,
2013-01-11 06:48:00,48.5,44.8,29.92,South,190,3.0,7.0,87,0.00,,---,0.00,0.00,VWS V14.00,2013-01-11 12:48:00,
2013-01-11 06:52:00,48.5,45.1,29.92,SSW,197,6.0,8.0,88,0.00,,---,0.00,0.00,VWS V14.00,2013-01-11 12:52:00,
2013-01-11 06:56:00,48.8,45.1,29.92,South,180,3.0,8.0,87,0.00,,---,0.00,0.00,VWS V14.00,2013-01-11 12:56:00,
2013-01-11 07:00:00,48.8,45.1,29.92,South,185,3.0,8.0,87,0.00,,---,0.00,0.00,VWS V14.00,2013-01-11 13:00:00,
2013-01-11 07:04:00,48.7,45.0,29.92,South,189,6.0,6.0,87,0.00,,---,0.00,0.00,VWS V14.00,2013-01-11 13:04:00,
2013-01-11 07:08:00,48.8,45.1,29.92,South,186,2.0,7.0,87,0.00,,---,0.00,5.00,VWS V14.00,2013-01-11 13:08:00,
2013-01-11 07:12:00,48.7,45.0,29.92,South,186,4.0,7.0,87,0.00,,---,0.00,9.00,VWS V14.00,2013-01-11 13:12:00,
2013-01-11 07:17:00,48.7,45.0,29.92,South,187,4.0,7.0,87,0.00,,---,0.00,12.00,VWS V14.00,2013-01-11 13:17:00,
2013-01-11 07:21:00,48.9,45.2,29.92,South,178,5.0,7.0,87,0.00,,---,0.00,19.00,VWS V14.00,2013-01-11 13:21:00,
2013-01-11 07:25:00,49.1,45.4,29.92,South,187,2.0,7.0,87,0.00,,---,0.00,25.00,VWS V14.00,2013-01-11 13:25:00,
2013-01-11 07:29:00,49.2,45.5,29.92,South,188,3.0,7.0,87,0.00,,---,0.00,28.00,VWS V14.00,2013-01-11 13:29:00,
2013-01-11 07:30:00,49.2,45.5,29.93,South,191,4.0,7.0,87,0.00,,---,0.00,30.00,VWS V14.00,2013-01-11 13:30:00,
2013-01-11 07:33:00,49.3,45.6,29.93,South,182,3.0,5.0,87,0.00,,---,0.00,32.00,VWS V14.00,2013-01-11 13:33:00,
2013-01-11 07:37:00,49.5,45.8,29.93,South,179,4.0,5.0,87,0.00,,---,0.00,37.00,VWS V14.00,2013-01-11 13:37:00,
2013-01-11 07:41:00,49.6,45.9,29.93,South,172,4.0,7.0,87,0.00,,---,0.00,39.00,VWS V14.00,2013-01-11 13:41:00,
2013-01-11 07:45:00,49.7,45.7,29.93,South,173,3.0,7.0,86,0.00,,---,0.00,44.00,VWS V14.00,2013-01-11 13:45:00,
2013-01-11 07:49:00,49.7,46.0,29.93,South,186,3.0,7.0,87,0.00,,---,0.00,54.00,VWS V14.00,2013-01-11 13:49:00,
2013-01-11 07:53:00,49.9,45.9,29.93,South,185,3.0,7.0,86,0.00,,---,0.00,63.00,VWS V14.00,2013-01-11 13:53:00,
2013-01-11 07:57:00,50.1,46.1,29.93,South,184,4.0,7.0,86,0.00,,---,0.00,83.00,VWS V14.00,2013-01-11 13:57:00,
2013-01-11 08:00:00,50.3,46.3,29.94,SSW,201,3.0,7.0,86,0.00,,---,0.00,76.00,VWS V14.00,2013-01-11 14:00:00,
2013-01-11 08:01:00,50.3,46.3,29.94,SSW,193,6.0,6.0,86,0.00,,---,0.00,67.00,VWS V14.00,2013-01-11 14:01:00,
2013-01-11 08:05:00,50.4,46.4,29.94,South,190,1.0,6.0,86,0.00,,---,0.00,72.00,VWS V14.00,2013-01-11 14:05:00,
2013-01-11 08:09:00,50.6,46.6,29.94,SSW,192,3.0,6.0,86,0.00,,---,0.00,88.00,VWS V14.00,2013-01-11 14:09:00,
2013-01-11 08:13:00,50.9,46.9,29.94,South,179,3.0,6.0,86,0.00,,---,0.00,104.00,VWS V14.00,2013-01-11 14:13:00,
2013-01-11 08:17:00,51.1,47.1,29.94,South,188,1.0,6.0,86,0.00,,---,0.00,109.00,VWS V14.00,2013-01-11 14:17:00,
2013-01-11 08:21:00,51.4,47.0,29.94,South,182,2.0,6.0,85,0.00,,---,0.00,169.00,VWS V14.00,2013-01-11 14:21:00,
2013-01-11 08:25:00,51.8,47.4,29.94,South,186,2.0,6.0,85,0.00,,---,0.00,171.00,VWS V14.00,2013-01-11 14:25:00,
2013-01-11 08:29:00,52.4,47.7,29.94,SSW,213,6.0,7.0,84,0.00,,---,0.00,165.00,VWS V14.00,2013-01-11 14:29:00,
2013-01-11 08:30:00,52.5,47.8,29.94,South,186,5.0,7.0,84,0.00,,---,0.00,139.00,VWS V14.00,2013-01-11 14:30:00,
2013-01-11 08:33:00,52.6,47.6,29.94,South,186,7.0,7.0,83,0.00,,---,0.00,102.00,VWS V14.00,2013-01-11 14:33:00,
2013-01-11 08:37:00,52.7,47.7,29.94,SSW,204,5.0,8.0,83,0.00,,---,0.00,113.00,VWS V14.00,2013-01-11 14:37:00,
2013-01-11 08:41:00,53.1,48.1,29.94,South,184,9.0,9.0,83,0.00,,---,0.00,137.00,VWS V14.00,2013-01-11 14:41:00,
2013-01-11 08:45:00,53.4,48.4,29.94,SSW,193,5.0,9.0,83,0.00,,---,0.00,132.00,VWS V14.00,2013-01-11 14:45:00,
2013-01-11 08:49:00,53.6,48.2,29.94,SSW,196,4.0,9.0,82,0.00,,---,0.00,146.00,VWS V14.00,2013-01-11 14:49:00,
2013-01-11 08:53:00,53.7,48.3,29.94,South,184,10.0,10.0,82,0.00,,---,0.00,146.00,VWS V14.00,2013-01-11 14:53:00,
2013-01-11 08:57:00,53.9,48.5,29.94,SSW,203,4.0,10.0,82,0.00,,---,0.00,204.00,VWS V14.00,2013-01-11 14:57:00,
2013-01-11 09:00:00,54.3,48.6,29.94,SSW,192,4.0,10.0,81,0.00,,---,0.00,214.00,VWS V14.00,2013-01-11 15:00:00,
2013-01-11 09:01:00,54.4,48.7,29.94,South,190,4.0,4.0,81,0.00,,---,0.00,193.00,VWS V14.00,2013-01-11 15:01:00,
2013-01-11 09:05:00,54.8,49.1,29.94,South,190,6.0,6.0,81,0.00,,---,0.00,179.00,VWS V14.00,2013-01-11 15:05:00,
2013-01-11 09:09:00,54.8,49.1,29.94,South,175,4.0,6.0,81,0.00,,---,0.00,186.00,VWS V14.00,2013-01-11 15:09:00,
2013-01-11 09:13:00,55.6,49.5,29.94,South,188,2.0,7.0,80,0.00,,---,0.00,209.00,VWS V14.00,2013-01-11 15:13:00,
2013-01-11 09:17:00,56.1,49.7,29.94,SSW,192,4.0,8.0,79,0.00,,---,0.00,301.00,VWS V14.00,2013-01-11 15:17:00,
2013-01-11 09:21:00,56.6,49.8,29.94,South,176,4.0,8.0,78,0.00,,---,0.00,281.00,VWS V14.00,2013-01-11 15:21:00,
2013-01-11 09:25:00,57.1,50.3,29.94,South,188,3.0,8.0,78,0.00,,---,0.00,250.00,VWS V14.00,2013-01-11 15:25:00,
2013-01-11 09:29:00,57.2,50.1,29.92,South,186,7.0,12.0,77,0.00,,---,0.00,265.00,VWS V14.00,2013-01-11 15:29:00,
2013-01-11 09:30:00,57.3,50.2,29.92,SSW,194,4.0,12.0,77,0.00,,---,0.00,258.00,VWS V14.00,2013-01-11 15:30:00,
2013-01-11 09:33:00,57.7,50.5,29.92,SSW,192,2.0,7.0,77,0.00,,---,0.00,223.00,VWS V14.00,2013-01-11 15:33:00,
2013-01-11 09:37:00,58.0,50.5,29.92,South,188,6.0,7.0,76,0.00,,---,0.00,204.00,VWS V14.00,2013-01-11 15:37:00,
2013-01-11 09:42:00,57.9,50.4,29.92,SW,219,2.0,7.0,76,0.00,,---,0.00,197.00,VWS V14.00,2013-01-11 15:42:00,
2013-01-11 09:46:00,58.4,50.5,29.92,SSW,196,4.0,7.0,75,0.00,,---,0.00,378.00,VWS V14.00,2013-01-11 15:46:00,
2013-01-11 09:50:00,59.5,51.9,29.92,SSW,195,6.0,10.0,76,0.00,,---,0.00,568.00,VWS V14.00,2013-01-11 15:50:00,
2013-01-11 09:54:00,60.7,51.2,29.92,South,185,8.0,12.0,71,0.00,,---,0.00,591.00,VWS V14.00,2013-01-11 15:54:00,
2013-01-11 09:58:00,61.4,51.2,29.92,South,181,9.0,12.0,69,0.00,,---,0.00,612.00,VWS V14.00,2013-01-11 15:58:00,
2013-01-11 10:00:00,62.1,51.8,29.93,SSW,198,11.0,12.0,69,0.00,,---,0.00,552.00,VWS V14.00,2013-01-11 16:00:00,
2013-01-11 10:02:00,62.3,51.6,29.93,SSW,207,9.0,11.0,68,0.00,,---,0.00,573.00,VWS V14.00,2013-01-11 16:02:00,
2013-01-11 10:06:00,62.9,51.4,29.93,South,186,4.0,11.0,66,0.00,,---,0.00,555.00,VWS V14.00,2013-01-11 16:06:00,
2013-01-11 10:10:00,62.4,51.7,29.93,SSW,202,5.0,11.0,68,0.00,,---,0.00,318.00,VWS V14.00,2013-01-11 16:10:00,
2013-01-11 10:14:00,62.8,50.9,29.93,SSW,192,7.0,11.0,65,0.00,,---,0.00,526.00,VWS V14.00,2013-01-11 16:14:00,
2013-01-11 10:18:00,63.4,51.0,29.93,SSW,201,6.0,11.0,64,0.00,,---,0.00,455.00,VWS V14.00,2013-01-11 16:18:00,
2013-01-11 10:22:00,63.4,51.4,29.93,SSW,202,2.0,11.0,65,0.00,,---,0.00,323.00,VWS V14.00,2013-01-11 16:22:00,
2013-01-11 10:26:00,63.2,50.8,29.93,South,186,8.0,11.0,64,0.00,,---,0.00,308.00,VWS V14.00,2013-01-11 16:26:00,
2013-01-11 10:30:00,62.6,50.3,29.92,SSW,203,3.0,11.0,64,0.00,,---,0.00,287.00,VWS V14.00,2013-01-11 16:30:00,
2013-01-11 10:34:00,62.9,51.0,29.92,SSW,194,7.0,7.0,65,0.00,,---,0.00,320.00,VWS V14.00,2013-01-11 16:34:00,
2013-01-11 10:38:00,62.8,49.6,29.92,SSW,199,12.0,13.0,62,0.00,,---,0.00,332.00,VWS V14.00,2013-01-11 16:38:00,
2013-01-11 10:42:00,63.5,51.1,29.92,SW,217,5.0,13.0,64,0.00,,---,0.00,404.00,VWS V14.00,2013-01-11 16:42:00,
2013-01-11 10:46:00,64.5,50.3,29.91,SE,145,2.0,13.0,60,0.00,,---,0.00,707.00,VWS V14.00,2013-01-11 16:46:00,
2013-01-11 10:50:00,65.8,51.1,29.91,SW,236,7.0,13.0,59,0.00,,---,0.00,779.00,VWS V14.00,2013-01-11 16:50:00,
2013-01-11 10:54:00,66.3,50.6,29.91,South,173,7.0,13.0,57,0.00,,---,0.00,543.00,VWS V14.00,2013-01-11 16:54:00,
2013-01-11 10:58:00,66.0,49.9,29.91,SSW,205,4.0,13.0,56,0.00,,---,0.00,366.00,VWS V14.00,2013-01-11 16:58:00,
2013-01-11 11:00:00,65.8,49.7,29.90,South,180,2.0,13.0,56,0.00,,---,0.00,427.00,VWS V14.00,2013-01-11 17:00:00,
2013-01-11 11:02:00,66.0,49.9,29.90,SSW,204,6.0,7.0,56,0.00,,---,0.00,427.00,VWS V14.00,2013-01-11 17:02:00,
2013-01-11 11:06:00,66.5,50.3,29.90,SSW,213,10.0,10.0,56,0.00,,---,0.00,633.00,VWS V14.00,2013-01-11 17:06:00,
2013-01-11 11:10:00,66.8,50.1,29.90,SW,220,6.0,10.0,55,0.00,,---,0.00,496.00,VWS V14.00,2013-01-11 17:10:00,
2013-01-11 11:14:00,66.9,49.7,29.89,SW,219,2.0,11.0,54,0.00,,---,0.00,536.00,VWS V14.00,2013-01-11 17:14:00,
2013-01-11 11:18:00,67.5,49.8,29.89,SSW,205,5.0,11.0,53,0.00,,---,0.00,561.00,VWS V14.00,2013-01-11 17:18:00,
2013-01-11 11:22:00,67.9,50.2,29.89,SW,219,5.0,11.0,53,0.00,,---,0.00,545.00,VWS V14.00,2013-01-11 17:22:00,
2013-01-11 11:26:00,67.8,49.5,29.89,SW,226,5.0,13.0,52,0.00,,---,0.00,571.00,VWS V14.00,2013-01-11 17:26:00,
2013-01-11 11:30:00,67.8,49.5,29.88,SW,223,6.0,13.0,52,0.00,,---,0.00,554.00,VWS V14.00,2013-01-11 17:30:00,
2013-01-11 11:34:00,68.6,49.2,29.88,SSW,202,5.0,11.0,50,0.00,,---,0.00,606.00,VWS V14.00,2013-01-11 17:34:00,
2013-01-11 11:38:00,68.9,50.0,29.88,SSW,207,4.0,11.0,51,0.00,,---,0.00,598.00,VWS V14.00,2013-01-11 17:38:00,
2013-01-11 11:42:00,68.8,48.9,29.88,SW,224,3.0,11.0,49,0.00,,---,0.00,517.00,VWS V14.00,2013-01-11 17:42:00,
2013-01-11 11:46:00,69.1,49.7,29.89,SSE,165,13.0,13.0,50,0.00,,---,0.00,497.00,VWS V14.00,2013-01-11 17:46:00,
2013-01-11 11:50:00,68.4,49.6,29.89,SSW,196,7.0,13.0,51,0.00,,---,0.00,429.00,VWS V14.00,2013-01-11 17:50:00,
2013-01-11 11:55:00,67.6,48.8,29.89,South,186,9.0,13.0,51,0.00,,---,0.00,515.00,VWS V14.00,2013-01-11 17:55:00,
2013-01-11 11:59:00,67.9,49.7,29.89,South,179,8.0,13.0,52,0.00,,---,0.00,506.00,VWS V14.00,2013-01-11 17:59:00,
2013-01-11 12:00:00,68.0,49.7,29.88,SW,228,7.0,13.0,52,0.00,,---,0.00,629.00,VWS V14.00,2013-01-11 18:00:00,
2013-01-11 12:03:00,68.3,49.0,29.88,South,183,12.0,12.0,50,0.00,,---,0.00,492.00,VWS V14.00,2013-01-11 18:03:00,
2013-01-11 12:07:00,67.3,48.6,29.88,SSW,210,3.0,15.0,51,0.00,,---,0.00,248.00,VWS V14.00,2013-01-11 18:07:00,
2013-01-11 12:11:00,67.9,48.6,29.88,South,178,9.0,15.0,50,0.00,,---,0.00,622.00,VWS V14.00,2013-01-11 18:11:00,
2013-01-11 12:15:00,68.1,48.8,29.87,South,172,10.0,15.0,50,0.00,,---,0.00,548.00,VWS V14.00,2013-01-11 18:15:00,
2013-01-11 12:19:00,67.7,47.9,29.87,SSW,196,9.0,16.0,49,0.00,,---,0.00,621.00,VWS V14.00,2013-01-11 18:19:00,
2013-01-11 12:23:00,68.0,47.6,29.87,South,180,15.0,18.0,48,0.00,,---,0.00,640.00,VWS V14.00,2013-01-11 18:23:00,
2013-01-11 12:27:00,69.0,48.5,29.87,SSW,205,7.0,18.0,48,0.00,,---,0.00,673.00,VWS V14.00,2013-01-11 18:27:00,
2013-01-11 12:30:00,69.0,48.5,29.84,SSW,195,9.0,18.0,48,0.00,,---,0.00,640.00,VWS V14.00,2013-01-11 18:30:00,
2013-01-11 12:31:00,69.0,48.0,29.84,SSE,167,12.0,17.0,47,0.00,,---,0.00,559.00,VWS V14.00,2013-01-11 18:31:00,
2013-01-11 12:35:00,68.7,48.2,29.84,South,169,13.0,17.0,48,0.00,,---,0.00,606.00,VWS V14.00,2013-01-11 18:35:00,
2013-01-11 12:39:00,69.3,48.2,29.84,South,182,11.0,17.0,47,0.00,,---,0.00,654.00,VWS V14.00,2013-01-11 18:39:00,
2013-01-11 12:43:00,69.3,47.1,29.84,SSW,194,11.0,17.0,45,0.00,,---,0.00,533.00,VWS V14.00,2013-01-11 18:43:00,
2013-01-11 12:47:00,69.7,47.4,29.83,South,181,13.0,17.0,45,0.00,,---,0.00,635.00,VWS V14.00,2013-01-11 18:47:00,
2013-01-11 12:51:00,70.1,48.4,29.83,South,188,9.0,17.0,46,0.00,,---,0.00,612.00,VWS V14.00,2013-01-11 18:51:00,
2013-01-11 12:55:00,70.5,47.6,29.83,South,180,14.0,17.0,44,0.00,,---,0.00,599.00,VWS V14.00,2013-01-11 18:55:00,
2013-01-11 12:59:00,70.4,47.5,29.82,South,179,13.0,17.0,44,0.00,,---,0.00,364.00,VWS V14.00,2013-01-11 18:59:00,
2013-01-11 13:00:00,70.4,47.5,29.82,South,182,13.0,17.0,44,0.00,,---,0.00,536.00,VWS V14.00,2013-01-11 19:00:00,
2013-01-11 13:03:00,70.0,47.7,29.82,South,169,16.0,16.0,45,0.00,,---,0.00,411.00,VWS V14.00,2013-01-11 19:03:00,
2013-01-11 13:07:00,69.1,46.9,29.82,South,180,11.0,18.0,45,0.00,,---,0.00,432.00,VWS V14.00,2013-01-11 19:07:00,
2013-01-11 13:11:00,69.2,46.4,29.82,SW,217,5.0,18.0,44,0.00,,---,0.00,587.00,VWS V14.00,2013-01-11 19:11:00,
2013-01-11 13:15:00,70.1,47.8,29.81,SSE,165,7.0,18.0,45,0.00,,---,0.00,543.00,VWS V14.00,2013-01-11 19:15:00,
2013-01-11 13:19:00,69.8,47.5,29.81,South,172,15.0,18.0,45,0.00,,---,0.00,471.00,VWS V14.00,2013-01-11 19:19:00,
2013-01-11 13:23:00,69.0,47.4,29.81,SSE,167,10.0,18.0,46,0.00,,---,0.00,223.00,VWS V14.00,2013-01-11 19:23:00,
2013-01-11 13:27:00,68.6,48.2,29.81,South,182,10.0,18.0,48,0.00,,---,0.00,218.00,VWS V14.00,2013-01-11 19:27:00,
2013-01-11 13:30:00,68.9,47.3,29.82,South,186,11.0,18.0,46,0.00,,---,0.00,225.00,VWS V14.00,2013-01-11 19:30:00,
2013-01-11 13:31:00,69.0,47.4,29.82,South,191,14.0,14.0,46,0.00,,---,0.00,230.00,VWS V14.00,2013-01-11 19:31:00,
2013-01-11 13:35:00,69.7,48.0,29.82,South,179,10.0,14.0,46,0.00,,---,0.00,601.00,VWS V14.00,2013-01-11 19:35:00,
2013-01-11 13:39:00,71.0,48.0,29.82,South,178,7.0,14.0,44,0.00,,---,0.00,545.00,VWS V14.00,2013-01-11 19:39:00,
2013-01-11 13:43:00,71.3,48.3,29.82,South,178,8.0,14.0,44,0.00,,---,0.00,267.00,VWS V14.00,2013-01-11 19:43:00,
2013-01-11 13:47:00,70.8,47.8,29.81,South,180,6.0,14.0,44,0.00,,---,0.00,255.00,VWS V14.00,2013-01-11 19:47:00,
2013-01-11 13:51:00,70.5,48.2,29.81,SSE,152,11.0,14.0,45,0.00,,---,0.00,496.00,VWS V14.00,2013-01-11 19:51:00,
2013-01-11 13:55:00,70.7,47.7,29.81,South,178,11.0,14.0,44,0.00,,---,0.00,578.00,VWS V14.00,2013-01-11 19:55:00,
2013-01-11 13:59:00,71.7,48.7,29.79,SSW,192,10.0,15.0,44,0.00,,---,0.00,501.00,VWS V14.00,2013-01-11 19:59:00,
2013-01-11 14:00:00,71.7,47.4,29.79,SSW,196,10.0,15.0,42,0.00,,---,0.00,501.00,VWS V14.00,2013-01-11 20:00:00,
2013-01-11 14:03:00,71.8,48.1,29.79,South,182,8.0,10.0,43,0.00,,---,0.00,469.00,VWS V14.00,2013-01-11 20:03:00,
2013-01-11 14:07:00,71.4,49.0,29.79,SSW,195,4.0,10.0,45,0.00,,---,0.00,399.00,VWS V14.00,2013-01-11 20:07:00,
2013-01-11 14:11:00,71.2,48.2,29.79,SSE,159,7.0,11.0,44,0.00,,---,0.00,425.00,VWS V14.00,2013-01-11 20:11:00,
2013-01-11 14:15:00,71.8,48.1,29.79,SSE,168,14.0,14.0,43,0.00,,---,0.00,388.00,VWS V14.00,2013-01-11 20:15:00,
2013-01-11 14:20:00,71.7,47.4,29.79,South,169,11.0,16.0,42,0.00,,---,0.00,329.00,VWS V14.00,2013-01-11 20:20:00,
2013-01-11 14:24:00,71.3,48.3,29.79,South,186,7.0,16.0,44,0.00,,---,0.00,360.00,VWS V14.00,2013-01-11 20:24:00,
2013-01-11 14:28:00,71.7,48.0,29.79,SSE,163,13.0,16.0,43,0.00,,---,0.00,214.00,VWS V14.00,2013-01-11 20:28:00,
2013-01-11 14:30:00,71.2,47.6,29.79,South,181,5.0,16.0,43,0.00,,---,0.00,220.00,VWS V14.00,2013-01-11 20:30:00,
2013-01-11 14:32:00,71.1,47.5,29.79,SW,226,11.0,11.0,43,0.00,,---,0.00,232.00,VWS V14.00,2013-01-11 20:32:00,
2013-01-11 14:36:00,71.6,47.9,29.79,South,189,10.0,19.0,43,0.00,,---,0.00,188.00,VWS V14.00,2013-01-11 20:36:00,
2013-01-11 14:40:00,72.0,47.7,29.79,SSW,208,13.0,19.0,42,0.00,,---,0.00,265.00,VWS V14.00,2013-01-11 20:40:00,
2013-01-11 14:44:00,72.0,47.7,29.79,South,179,11.0,19.0,42,0.00,,---,0.00,265.00,VWS V14.00,2013-01-11 20:44:00,
2013-01-11 14:48:00,72.1,48.4,29.79,South,188,8.0,19.0,43,0.00,,---,0.00,230.00,VWS V14.00,2013-01-11 20:48:00,
2013-01-11 14:52:00,72.2,47.9,29.79,SSE,158,11.0,19.0,42,0.00,,---,0.00,322.00,VWS V14.00,2013-01-11 20:52:00,
2013-01-11 14:56:00,72.1,49.0,29.79,South,170,11.0,19.0,44,0.00,,---,0.00,330.00,VWS V14.00,2013-01-11 20:56:00,
2013-01-11 15:00:00,71.9,48.2,29.79,SSE,163,17.0,22.0,43,0.00,,---,0.00,302.00,VWS V14.00,2013-01-11 21:00:00,
2013-01-11 15:04:00,72.0,47.7,29.79,South,171,12.0,17.0,42,0.00,,---,0.00,387.00,VWS V14.00,2013-01-11 21:04:00,
2013-01-11 15:08:00,71.7,48.7,29.79,SSE,164,11.0,17.0,44,0.00,,---,0.00,341.00,VWS V14.00,2013-01-11 21:08:00,
2013-01-11 15:12:00,71.3,48.9,29.79,South,181,10.0,17.0,45,0.00,,---,0.00,216.00,VWS V14.00,2013-01-11 21:12:00,
2013-01-11 15:16:00,71.3,48.3,29.79,South,190,9.0,17.0,44,0.00,,---,0.00,267.00,VWS V14.00,2013-01-11 21:16:00,
2013-01-11 15:20:00,71.9,48.2,29.79,South,186,11.0,17.0,43,0.00,,---,0.00,239.00,VWS V14.00,2013-01-11 21:20:00,
2013-01-11 15:24:00,71.7,48.7,29.79,SSW,196,10.0,17.0,44,0.00,,---,0.00,264.00,VWS V14.00,2013-01-11 21:24:00,
2013-01-11 15:28:00,71.9,48.8,29.79,South,180,8.0,17.0,44,0.00,,---,0.00,183.00,VWS V14.00,2013-01-11 21:28:00,
2013-01-11 15:30:00,71.9,48.8,29.78,South,188,7.0,17.0,44,0.00,,---,0.00,362.00,VWS V14.00,2013-01-11 21:30:00,
2013-01-11 15:32:00,71.9,48.8,29.78,SSW,197,10.0,19.0,44,0.00,,---,0.00,345.00,VWS V14.00,2013-01-11 21:32:00,
2013-01-11 15:36:00,72.0,48.9,29.78,South,169,13.0,19.0,44,0.00,,---,0.00,169.00,VWS V14.00,2013-01-11 21:36:00,
2013-01-11 15:40:00,71.4,49.0,29.78,SW,217,10.0,19.0,45,0.00,,---,0.00,139.00,VWS V14.00,2013-01-11 21:40:00,
2013-01-11 15:44:00,71.3,48.9,29.79,SSE,165,17.0,19.0,45,0.00,,---,0.00,156.00,VWS V14.00,2013-01-11 21:44:00,
2013-01-11 15:48:00,71.3,48.9,29.79,SSW,211,6.0,19.0,45,0.00,,---,0.00,257.00,VWS V14.00,2013-01-11 21:48:00,
2013-01-11 15:52:00,71.8,49.3,29.79,SSE,155,16.0,19.0,45,0.00,,---,0.00,90.00,VWS V14.00,2013-01-11 21:52:00,
2013-01-11 15:56:00,71.0,48.6,29.79,South,169,9.0,19.0,45,0.00,,---,0.00,74.00,VWS V14.00,2013-01-11 21:56:00,
2013-01-11 16:00:00,70.6,48.8,29.79,South,188,13.0,19.0,46,0.00,,---,0.00,146.00,VWS V14.00,2013-01-11 22:00:00,
2013-01-11 16:04:00,70.7,49.5,29.79,South,173,7.0,13.0,47,0.00,,---,0.00,214.00,VWS V14.00,2013-01-11 22:04:00,
2013-01-11 16:08:00,70.8,49.0,29.79,SSE,154,7.0,13.0,46,0.00,,---,0.00,181.00,VWS V14.00,2013-01-11 22:08:00,
2013-01-11 16:12:00,70.5,49.3,29.79,South,173,9.0,13.0,47,0.00,,---,0.00,102.00,VWS V14.00,2013-01-11 22:12:00,
2013-01-11 16:16:00,70.5,49.3,29.79,SSE,162,5.0,13.0,47,0.00,,---,0.00,83.00,VWS V14.00,2013-01-11 22:16:00,
2013-01-11 16:20:00,70.3,49.7,29.79,South,178,5.0,13.0,48,0.00,,---,0.00,97.00,VWS V14.00,2013-01-11 22:20:00,
2013-01-11 16:24:00,70.3,49.7,29.79,SSE,161,9.0,13.0,48,0.00,,---,0.00,74.00,VWS V14.00,2013-01-11 22:24:00,
2013-01-11 16:28:00,69.8,49.8,29.79,South,181,6.0,13.0,49,0.00,,---,0.00,44.00,VWS V14.00,2013-01-11 22:28:00,
2013-01-11 16:30:00,69.5,49.5,29.78,SSE,162,8.0,13.0,49,0.00,,---,0.00,49.00,VWS V14.00,2013-01-11 22:30:00,
2013-01-11 16:32:00,69.7,49.7,29.78,SSE,166,8.0,9.0,49,0.00,,---,0.00,40.00,VWS V14.00,2013-01-11 22:32:00,
2013-01-11 16:36:00,69.8,49.2,29.78,SE,138,11.0,11.0,48,0.00,,---,0.00,37.00,VWS V14.00,2013-01-11 22:36:00,
2013-01-11 16:41:00,69.4,50.0,29.78,SSE,147,10.0,11.0,50,0.00,,---,0.00,39.00,VWS V14.00,2013-01-11 22:41:00,
2013-01-11 16:45:00,69.9,50.4,29.78,SSE,165,10.0,12.0,50,0.00,,---,0.00,37.00,VWS V14.00,2013-01-11 22:45:00,
2013-01-11 16:49:00,69.8,51.4,29.78,SSE,155,10.0,12.0,52,0.00,,---,0.00,39.00,VWS V14.00,2013-01-11 22:49:00,
2013-01-11 16:53:00,69.6,51.7,29.78,South,172,7.0,12.0,53,0.00,,---,0.00,33.00,VWS V14.00,2013-01-11 22:53:00,
2013-01-11 16:57:00,69.0,52.2,29.78,South,188,6.0,12.0,55,0.00,,---,0.00,30.00,VWS V14.00,2013-01-11 22:57:00,
2013-01-11 17:00:00,69.3,53.0,29.78,South,172,9.0,12.0,56,0.00,,---,0.00,19.00,VWS V14.00,2013-01-11 23:00:00,
2013-01-11 17:01:00,69.3,53.0,29.78,South,171,9.0,9.0,56,0.00,,---,0.00,18.00,VWS V14.00,2013-01-11 23:01:00,
2013-01-11 17:05:00,69.0,53.2,29.78,SSE,165,10.0,14.0,57,0.00,,---,0.00,11.00,VWS V14.00,2013-01-11 23:05:00,
2013-01-11 17:09:00,68.7,53.3,29.78,South,170,7.0,14.0,58,0.00,,---,0.00,7.00,VWS V14.00,2013-01-11 23:09:00,
2013-01-11 17:13:00,68.8,53.4,29.78,South,171,9.0,14.0,58,0.00,,---,0.00,0.00,VWS V14.00,2013-01-11 23:13:00,
2013-01-11 17:17:00,68.9,53.5,29.78,SSE,168,11.0,14.0,58,0.00,,---,0.00,0.00,VWS V14.00,2013-01-11 23:17:00,
2013-01-11 17:21:00,68.6,53.2,29.78,SSE,163,9.0,14.0,58,0.00,,---,0.00,0.00,VWS V14.00,2013-01-11 23:21:00,
2013-01-11 17:25:00,68.1,53.7,29.78,South,182,9.0,14.0,60,0.00,,---,0.00,0.00,VWS V14.00,2013-01-11 23:25:00,
2013-01-11 17:29:00,68.0,54.1,29.78,South,180,10.0,14.0,61,0.00,,---,0.00,0.00,VWS V14.00,2013-01-11 23:29:00,
2013-01-11 17:30:00,68.1,54.2,29.78,South,169,13.0,14.0,61,0.00,,---,0.00,0.00,VWS V14.00,2013-01-11 23:30:00,
2013-01-11 17:33:00,68.2,54.2,29.78,South,170,4.0,13.0,61,0.00,,---,0.00,0.00,VWS V14.00,2013-01-11 23:33:00,
2013-01-11 17:37:00,67.4,53.9,29.78,SSE,162,7.0,13.0,62,0.00,,---,0.00,0.00,VWS V14.00,2013-01-11 23:37:00,
2013-01-11 17:41:00,67.1,54.1,29.78,South,169,4.0,13.0,63,0.00,,---,0.00,0.00,VWS V14.00,2013-01-11 23:41:00,
2013-01-11 17:45:00,66.5,53.5,29.78,SSE,167,5.0,13.0,63,0.00,,---,0.00,0.00,VWS V14.00,2013-01-11 23:45:00,
2013-01-11 17:49:00,66.2,53.7,29.78,South,171,8.0,13.0,64,0.00,,---,0.00,0.00,VWS V14.00,2013-01-11 23:49:00,
2013-01-11 17:53:00,66.3,54.2,29.78,South,181,3.0,13.0,65,0.00,,---,0.00,0.00,VWS V14.00,2013-01-11 23:53:00,
2013-01-11 17:57:00,66.5,54.4,29.78,South,184,3.0,13.0,65,0.00,,---,0.00,0.00,VWS V14.00,2013-01-11 23:57:00,
2013-01-11 18:00:00,66.5,54.4,29.79,South,182,2.0,13.0,65,0.00,,---,0.00,0.00,VWS V14.00,2013-01-12 00:00:00,
2013-01-11 18:01:00,66.5,54.4,29.79,South,188,5.0,5.0,65,0.00,,---,0.00,0.00,VWS V14.00,2013-01-12 00:01:00,
2013-01-11 18:05:00,66.3,54.2,29.79,SSE,165,6.0,7.0,65,0.00,,---,0.00,0.00,VWS V14.00,2013-01-12 00:05:00,
2013-01-11 18:09:00,66.4,53.9,29.79,SSE,161,6.0,9.0,64,0.00,,---,0.00,0.00,VWS V14.00,2013-01-12 00:09:00,
2013-01-11 18:13:00,66.8,53.8,29.79,SSE,163,7.0,10.0,63,0.00,,---,0.00,0.00,VWS V14.00,2013-01-12 00:13:00,
2013-01-11 18:17:00,66.9,53.9,29.79,SSE,157,7.0,10.0,63,0.00,,---,0.00,0.00,VWS V14.00,2013-01-12 00:17:00,
2013-01-11 18:21:00,66.8,53.8,29.79,South,171,8.0,10.0,63,0.00,,---,0.00,0.00,VWS V14.00,2013-01-12 00:21:00,
2013-01-11 18:25:00,66.8,53.8,29.79,South,172,5.0,10.0,63,0.00,,---,0.00,0.00,VWS V14.00,2013-01-12 00:25:00,
2013-01-11 18:29:00,66.8,53.8,29.79,SSE,163,5.0,11.0,63,0.00,,---,0.00,0.00,VWS V14.00,2013-01-12 00:29:00,
2013-01-11 18:30:00,66.7,53.7,29.79,South,172,2.0,11.0,63,0.00,,---,0.00,0.00,VWS V14.00,2013-01-12 00:30:00,
2013-01-11 18:33:00,66.3,53.8,29.79,SSE,165,5.0,5.0,64,0.00,,---,0.00,0.00,VWS V14.00,2013-01-12 00:33:00,
2013-01-11 18:37:00,66.4,53.9,29.79,South,170,4.0,7.0,64,0.00,,---,0.00,0.00,VWS V14.00,2013-01-12 00:37:00,
2013-01-11 18:41:00,66.5,53.5,29.79,SSE,166,6.0,10.0,63,0.00,,---,0.00,0.00,VWS V14.00,2013-01-12 00:41:00,
2013-01-11 18:45:00,66.5,53.5,29.79,SSE,148,10.0,10.0,63,0.00,,---,0.00,0.00,VWS V14.00,2013-01-12 00:45:00,
2013-01-11 18:50:00,66.7,53.7,29.79,SSE,153,7.0,10.0,63,0.00,,---,0.00,0.00,VWS V14.00,2013-01-12 00:50:00,
2013-01-11 18:54:00,66.7,53.7,29.79,SSE,164,4.0,10.0,63,0.00,,---,0.00,0.00,VWS V14.00,2013-01-12 00:54:00,
2013-01-11 18:58:00,66.7,53.7,29.79,SSE,159,4.0,10.0,63,0.00,,---,0.00,0.00,VWS V14.00,2013-01-12 00:58:00,
2013-01-11 19:00:00,66.6,53.6,29.79,SE,136,6.0,10.0,63,0.00,,---,0.00,0.00,VWS V14.00,2013-01-12 01:00:00,
2013-01-11 19:02:00,66.6,53.6,29.79,SSE,161,6.0,6.0,63,0.00,,---,0.00,0.00,VWS V14.00,2013-01-12 01:02:00,
2013-01-11 19:06:00,66.6,53.6,29.79,SSE,159,5.0,6.0,63,0.00,,---,0.00,0.00,VWS V14.00,2013-01-12 01:06:00,
2013-01-11 19:10:00,66.6,53.6,29.79,SSE,159,5.0,10.0,63,0.00,,---,0.00,0.00,VWS V14.00,2013-01-12 01:10:00,
2013-01-11 19:14:00,66.6,54.1,29.79,SSE,159,6.0,10.0,64,0.00,,---,0.00,0.00,VWS V14.00,2013-01-12 01:14:00,
2013-01-11 19:18:00,66.5,54.0,29.79,SSE,166,5.0,13.0,64,0.00,,---,0.00,0.00,VWS V14.00,2013-01-12 01:18:00,
2013-01-11 19:22:00,66.4,53.9,29.79,SSE,158,7.0,13.0,64,0.00,,---,0.00,0.00,VWS V14.00,2013-01-12 01:22:00,
2013-01-11 19:26:00,66.3,54.2,29.79,SSE,166,6.0,13.0,65,0.00,,---,0.00,0.00,VWS V14.00,2013-01-12 01:26:00,
2013-01-11 19:30:00,65.8,53.7,29.80,SSE,167,3.0,13.0,65,0.00,,---,0.00,0.00,VWS V14.00,2013-01-12 01:30:00,
2013-01-11 19:34:00,65.1,53.9,29.80,South,184,3.0,6.0,67,0.00,,---,0.00,0.00,VWS V14.00,2013-01-12 01:34:00,
2013-01-11 19:38:00,64.9,53.7,29.80,SSE,168,4.0,6.0,67,0.00,,---,0.00,0.00,VWS V14.00,2013-01-12 01:38:00,
2013-01-11 19:42:00,64.8,53.6,29.80,SSE,165,10.0,10.0,67,0.00,,---,0.00,0.00,VWS V14.00,2013-01-12 01:42:00,
2013-01-11 19:46:00,65.2,54.0,29.81,SSE,162,9.0,11.0,67,0.00,,---,0.00,0.00,VWS V14.00,2013-01-12 01:46:00,
2013-01-11 19:50:00,65.3,54.5,29.81,SSE,165,13.0,13.0,68,0.00,,---,0.00,0.00,VWS V14.00,2013-01-12 01:50:00,
2013-01-11 19:54:00,65.5,54.3,29.81,South,171,6.0,13.0,67,0.00,,---,0.00,0.00,VWS V14.00,2013-01-12 01:54:00,
2013-01-11 19:58:00,65.4,54.2,29.81,SSE,166,6.0,13.0,67,0.00,,---,0.00,0.00,VWS V14.00,2013-01-12 01:58:00,
2013-01-11 20:00:00,65.4,54.2,29.81,South,177,3.0,13.0,67,0.00,,---,0.00,0.00,VWS V14.00,2013-01-12 02:00:00,
2013-01-11 20:02:00,65.3,54.1,29.81,South,175,5.0,8.0,67,0.00,,---,0.00,0.00,VWS V14.00,2013-01-12 02:02:00,
2013-01-11 20:06:00,65.4,54.2,29.81,SSE,161,6.0,13.0,67,0.00,,---,0.00,0.00,VWS V14.00,2013-01-12 02:06:00,
2013-01-11 20:10:00,65.1,54.3,29.81,South,174,6.0,13.0,68,0.00,,---,0.00,0.00,VWS V14.00,2013-01-12 02:10:00,
2013-01-11 20:14:00,65.1,54.3,29.81,SSE,161,6.0,13.0,68,0.00,,---,0.00,0.00,VWS V14.00,2013-01-12 02:14:00,
2013-01-11 20:18:00,65.1,54.3,29.81,South,169,10.0,13.0,68,0.00,,---,0.00,0.00,VWS V14.00,2013-01-12 02:18:00,
2013-01-11 20:22:00,64.9,54.1,29.81,SSE,165,9.0,13.0,68,0.00,,---,0.00,0.00,VWS V14.00,2013-01-12 02:22:00,
2013-01-11 20:26:00,64.5,54.1,29.81,South,170,5.0,13.0,69,0.00,,---,0.00,0.00,VWS V14.00,2013-01-12 02:26:00,
2013-01-11 20:30:00,64.5,54.5,29.82,South,185,8.0,13.0,70,0.00,,---,0.00,0.00,VWS V14.00,2013-01-12 02:30:00,
2013-01-11 20:34:00,64.5,54.5,29.82,South,173,2.0,8.0,70,0.00,,---,0.00,0.00,VWS V14.00,2013-01-12 02:34:00,
2013-01-11 20:38:00,64.6,54.2,29.82,South,173,4.0,8.0,69,0.00,,---,0.00,0.00,VWS V14.00,2013-01-12 02:38:00,
2013-01-11 20:42:00,64.4,54.4,29.82,South,173,2.0,8.0,70,0.00,,---,0.00,0.00,VWS V14.00,2013-01-12 02:42:00,
2013-01-11 20:46:00,64.1,54.1,29.82,South,171,4.0,8.0,70,0.00,,---,0.00,0.00,VWS V14.00,2013-01-12 02:46:00,
2013-01-11 20:50:00,64.0,54.0,29.82,South,171,5.0,8.0,70,0.00,,---,0.00,0.00,VWS V14.00,2013-01-12 02:50:00,
2013-01-11 20:54:00,63.9,54.3,29.82,South,177,3.0,8.0,71,0.00,,---,0.00,0.00,VWS V14.00,2013-01-12 02:54:00,
2013-01-11 20:59:00,64.1,54.1,29.82,South,176,4.0,8.0,70,0.00,,---,0.00,0.00,VWS V14.00,2013-01-12 02:59:00,
2013-01-11 21:00:00,64.1,54.1,29.82,South,175,6.0,8.0,70,0.00,,---,0.00,0.00,VWS V14.00,2013-01-12 03:00:00,
2013-01-11 21:03:00,64.3,54.3,29.82,South,175,4.0,7.0,70,0.00,,---,0.00,0.00,VWS V14.00,2013-01-12 03:03:00,
2013-01-11 21:07:00,64.4,54.4,29.82,South,180,3.0,7.0,70,0.00,,---,0.00,0.00,VWS V14.00,2013-01-12 03:07:00,
2013-01-11 21:11:00,64.5,54.5,29.82,South,169,4.0,7.0,70,0.00,,---,0.00,0.00,VWS V14.00,2013-01-12 03:11:00,
2013-01-11 21:15:00,64.5,54.5,29.82,SSE,166,3.0,7.0,70,0.00,,---,0.00,0.00,VWS V14.00,2013-01-12 03:15:00,
2013-01-11 21:19:00,64.4,54.4,29.82,South,171,2.0,7.0,70,0.00,,---,0.00,0.00,VWS V14.00,2013-01-12 03:19:00,
2013-01-11 21:23:00,64.2,54.2,29.82,South,179,3.0,7.0,70,0.00,,---,0.00,0.00,VWS V14.00,2013-01-12 03:23:00,
2013-01-11 21:27:00,64.1,54.5,29.82,SSE,167,4.0,7.0,71,0.00,,---,0.00,0.00,VWS V14.00,2013-01-12 03:27:00,
2013-01-11 21:30:00,64.5,54.5,29.82,SSE,167,3.0,7.0,70,0.00,,---,0.00,0.00,VWS V14.00,2013-01-12 03:30:00,
2013-01-11 21:31:00,64.5,54.5,29.82,SSE,163,5.0,5.0,70,0.00,,---,0.00,0.00,VWS V14.00,2013-01-12 03:31:00,
2013-01-11 21:35:00,64.4,54.4,29.82,SSE,166,5.0,5.0,70,0.00,,---,0.00,0.00,VWS V14.00,2013-01-12 03:35:00,
2013-01-11 21:39:00,64.1,54.5,29.82,SSE,165,5.0,6.0,71,0.00,,---,0.00,0.00,VWS V14.00,2013-01-12 03:39:00,
2013-01-11 21:43:00,64.3,54.7,29.82,SSE,159,6.0,7.0,71,0.00,,---,0.00,0.00,VWS V14.00,2013-01-12 03:43:00,
2013-01-11 21:47:00,64.5,54.9,29.82,SSE,163,7.0,9.0,71,0.00,,---,0.00,0.00,VWS V14.00,2013-01-12 03:47:00,
2013-01-11 21:51:00,64.3,54.7,29.82,SSE,161,4.0,9.0,71,0.00,,---,0.00,0.00,VWS V14.00,2013-01-12 03:51:00,
2013-01-11 21:55:00,64.2,54.6,29.82,SSE,165,5.0,9.0,71,0.00,,---,0.00,0.00,VWS V14.00,2013-01-12 03:55:00,
2013-01-11 21:59:00,63.8,54.6,29.82,South,169,7.0,9.0,72,0.00,,---,0.00,0.00,VWS V14.00,2013-01-12 03:59:00,
2013-01-11 22:00:00,63.8,55.0,29.82,South,172,5.0,9.0,73,0.00,,---,0.00,0.00,VWS V14.00,2013-01-12 04:00:00,
2013-01-11 22:03:00,64.0,55.2,29.82,SSE,157,11.0,11.0,73,0.00,,---,0.00,0.00,VWS V14.00,2013-01-12 04:03:00,
2013-01-11 22:07:00,64.2,55.4,29.82,South,169,11.0,11.0,73,0.00,,---,0.00,0.00,VWS V14.00,2013-01-12 04:07:00,
2013-01-11 22:11:00,64.1,55.3,29.82,South,173,4.0,11.0,73,0.00,,---,0.00,0.00,VWS V14.00,2013-01-12 04:11:00,
2013-01-11 22:15:00,63.9,55.8,29.82,South,169,6.0,11.0,75,0.00,,---,0.00,0.00,VWS V14.00,2013-01-12 04:15:00,
2013-01-11 22:19:00,64.0,55.9,29.82,South,182,3.0,12.0,75,0.00,,---,0.00,0.00,VWS V14.00,2013-01-12 04:19:00,
2013-01-11 22:23:00,64.1,56.0,29.82,South,176,8.0,12.0,75,0.00,,---,0.00,0.00,VWS V14.00,2013-01-12 04:23:00,
2013-01-11 22:27:00,64.2,56.1,29.82,South,174,10.0,12.0,75,0.00,,---,0.00,0.00,VWS V14.00,2013-01-12 04:27:00,
2013-01-11 22:30:00,64.2,56.1,29.82,South,175,6.0,12.0,75,0.00,,---,0.00,0.00,VWS V14.00,2013-01-12 04:30:00,
2013-01-11 22:31:00,64.1,56.0,29.82,South,177,4.0,7.0,75,0.00,,---,0.00,0.00,VWS V14.00,2013-01-12 04:31:00,
2013-01-11 22:35:00,64.1,56.0,29.82,South,185,7.0,11.0,75,0.00,,---,0.00,0.00,VWS V14.00,2013-01-12 04:35:00,
2013-01-11 22:39:00,64.1,56.0,29.82,SSW,194,10.0,11.0,75,0.00,,---,0.00,0.00,VWS V14.00,2013-01-12 04:39:00,
2013-01-11 22:43:00,63.9,56.2,29.82,SSE,163,5.0,11.0,76,0.00,,---,0.00,0.00,VWS V14.00,2013-01-12 04:43:00,
2013-01-11 22:47:00,63.9,56.2,29.82,SSE,164,4.0,11.0,76,0.00,,---,0.00,0.00,VWS V14.00,2013-01-12 04:47:00,
2013-01-11 22:51:00,64.0,56.7,29.82,South,190,3.0,13.0,77,0.00,,---,0.00,0.00,VWS V14.00,2013-01-12 04:51:00,
2013-01-11 22:55:00,63.9,56.6,29.82,South,181,5.0,13.0,77,0.00,,---,0.00,0.00,VWS V14.00,2013-01-12 04:55:00,
2013-01-11 22:59:00,64.0,56.7,29.82,South,189,5.0,13.0,77,0.00,,---,0.00,0.00,VWS V14.00,2013-01-12 04:59:00,
2013-01-11 23:00:00,64.1,56.8,29.82,South,184,7.0,13.0,77,0.00,,---,0.00,0.00,VWS V14.00,2013-01-12 05:00:00,
2013-01-11 23:04:00,64.1,56.8,29.82,South,188,3.0,7.0,77,0.00,,---,0.00,0.00,VWS V14.00,2013-01-12 05:04:00,
2013-01-11 23:08:00,64.1,57.1,29.82,South,186,3.0,9.0,78,0.00,,---,0.00,0.00,VWS V14.00,2013-01-12 05:08:00,
2013-01-11 23:12:00,63.9,56.9,29.82,SSW,194,6.0,9.0,78,0.00,,---,0.00,0.00,VWS V14.00,2013-01-12 05:12:00,
2013-01-11 23:16:00,64.0,57.0,29.83,South,180,5.0,9.0,78,0.00,,---,0.00,0.00,VWS V14.00,2013-01-12 05:16:00,
2013-01-11 23:20:00,64.0,57.0,29.83,SSE,167,7.0,9.0,78,0.00,,---,0.00,0.00,VWS V14.00,2013-01-12 05:20:00,
2013-01-11 23:24:00,63.8,56.8,29.83,SSE,164,6.0,9.0,78,0.00,,---,0.00,0.00,VWS V14.00,2013-01-12 05:24:00,
2013-01-11 23:28:00,64.1,57.5,29.83,South,182,6.0,10.0,79,0.00,,---,0.00,0.00,VWS V14.00,2013-01-12 05:28:00,
2013-01-11 23:30:00,64.0,57.0,29.83,SSW,192,3.0,10.0,78,0.00,,---,0.00,0.00,VWS V14.00,2013-01-12 05:30:00,
2013-01-11 23:32:00,63.8,57.5,29.83,South,182,7.0,7.0,80,0.00,,---,0.00,0.00,VWS V14.00,2013-01-12 05:32:00,
2013-01-11 23:36:00,63.9,57.6,29.83,South,181,5.0,7.0,80,0.00,,---,0.00,0.00,VWS V14.00,2013-01-12 05:36:00,
2013-01-11 23:40:00,63.8,57.5,29.83,South,182,5.0,8.0,80,0.00,,---,0.00,0.00,VWS V14.00,2013-01-12 05:40:00,
2013-01-11 23:44:00,63.8,57.5,29.83,South,184,10.0,10.0,80,0.00,,---,0.00,0.00,VWS V14.00,2013-01-12 05:44:00,
2013-01-11 23:48:00,63.9,58.0,29.83,SSW,196,7.0,10.0,81,0.00,,---,0.00,0.00,VWS V14.00,2013-01-12 05:48:00,
2013-01-11 23:52:00,63.9,57.6,29.83,South,185,6.0,13.0,80,0.00,,---,0.00,0.00,VWS V14.00,2013-01-12 05:52:00,
2013-01-11 23:56:00,64.0,57.7,29.83,South,184,6.0,13.0,80,0.00,,---,0.00,0.00,VWS V14.00,2013-01-12 05:56:00,